Wolf, WY (82844)

5:36 AM MST on December 25, 2014 (GMT -0700)
KWYSHERI2 | Change Station
CLOSE
Current Station
Personal Weather Station
Location: Sheridan, WY
Elevation: 3828 ft
Nearby Weather Stations
Active Advisory: Winter Storm Warning

Elev 3828 ft 44.81 °N, 106.98 °W | Updated 4 minutes ago

Snow
Snow
28.4 °F
Feels Like 28 °F
N
0.0
Wind Variable Wind from NNE
Gusts 0.0 mph

Today
High -- | Low -- °F
--% Chance of Precip.
Yesterday
High -- | Low -- °F
Precip. -- in
7:45 AM 4:33 PM
Waxing Crescent, 16% visible
Pressure 29.64 in
Visibility 1.5 miles
Clouds Few 600 ft
Overcast 1100 ft
Windchill 28 °F
Dew Point 26 °F
Humidity 92%
Rainfall 0.07 in
Snow Depth Not available.
UV out of 12
Pollen .10 out of 12
Air Quality Not available.
Flu Activity Not available.
SPECI KSHR 251214Z AUTO 34010KT 1 1/2SM -SN BR FEW006 OVC011 M02/M03 A2964 RMK AO2 P0001 T10171033

More Conditions Fewer Conditions

Pressure 29.64 in
Visibility 1.5 miles
Clouds Few 600 ft
Overcast 1100 ft
Windchill 28 °F
Dew Point 26 °F
Humidity 92%
Rainfall 0.07 in
Snow Depth Not available.
UV out of 12
Pollen .10 out of 12
Air Quality Not available.
Flu Activity Not available.
SPECI KSHR 251214Z AUTO 34010KT 1 1/2SM -SN BR FEW006 OVC011 M02/M03 A2964 RMK AO2 P0001 T10171033

More Conditions Fewer Conditions

10-Day Weather Forecast

Almanac

Astronomy

Dec. 25, 2014 Rise Set
Actual Time
Civil Twilight
Nautical Twilight
Astronomical Twilight
Moon
Length of Visible Light
Length of Day
Tomorrow will be .
, % of the Moon is Illuminated

Today's Extremes

State Highs State Lows

Community

WunderPhotos

Upload Photos

1,780,266 photos uploaded!

WunderBlogs® & News

Nearby

Air Quality

  Air Quality AQ Index Pollutant
Not available.

Snow Depth

Station Depth Elevation

Earthquake Activity

City Distance Mag. Time & Date
Minimum magnitude displayed is 2.5.

Coastal Water Temperatures

Place Temperature

Nearby Weather Stations